CAL525 RCTP-KLAX
Flight info
| Callsign | CAL525 |
|---|---|
| Flight time | N/A |
| Altitude | 33000 |
| Route | MOLKA1B MOLKA M750 MUKEP Y891 OVSUN Y893 IGMIS Y57 POROT Y809 IDLAN Y812 ADNAP OTR7 EMRON DCT 41N160E 43N170E 43N180E 42N170W 41N160W 40N150W 39N140W 39N130W DCT DACEM DCT PAINT DCT PIRAT DCT BURGL IRNMN2 |
| Aircraft | B77W/H-SDE1E2E3FGHIJ2J3J4J5M1RWXY/LB1D1 |
Departure
| Time | 2026-05-07 14:46 |
|---|---|
| Airport | Taiwan Taoyuan International Airport (RCTP) |
Arrival
| Time | N/A |
|---|---|
| Airport | Los Angeles International Airport (KLAX) |
| Time | Latitude | Longitude | Altitude | Speed | Heading |
|---|---|---|---|---|---|
| 2026-05-07 14:23 | 25.07905 | 121.23044 | 106 ft | 0 kts | 139° |
| 2026-05-07 14:37 | 25.07922 | 121.23028 | 106 ft | 4 kts | 139° |
| 2026-05-07 14:37 | 25.07963 | 121.22989 | 107 ft | 3 kts | 139° |
| 2026-05-07 14:37 | 25.07978 | 121.22976 | 106 ft | 4 kts | 175° |
| 2026-05-07 14:38 | 25.07995 | 121.22984 | 106 ft | 4 kts | 229° |
| 2026-05-07 14:38 | 25.08013 | 121.23007 | 106 ft | 4 kts | 229° |
| 2026-05-07 14:38 | 25.08029 | 121.23027 | 106 ft | 1 kts | 229° |
| 2026-05-07 14:40 | 25.08026 | 121.23024 | 105 ft | 3 kts | 229° |
| 2026-05-07 14:40 | 25.07985 | 121.22971 | 107 ft | 11 kts | 229° |
| 2026-05-07 14:40 | 25.07934 | 121.22905 | 107 ft | 11 kts | 229° |
| 2026-05-07 14:41 | 25.07883 | 121.22839 | 106 ft | 11 kts | 229° |
| 2026-05-07 14:41 | 25.07831 | 121.22773 | 108 ft | 11 kts | 229° |
| 2026-05-07 14:41 | 25.07780 | 121.22708 | 108 ft | 11 kts | 229° |
| 2026-05-07 14:41 | 25.07729 | 121.22642 | 107 ft | 11 kts | 229° |
| 2026-05-07 14:42 | 25.07677 | 121.22577 | 108 ft | 11 kts | 229° |
| 2026-05-07 14:42 | 25.07625 | 121.22511 | 108 ft | 11 kts | 229° |
| 2026-05-07 14:42 | 25.07574 | 121.22445 | 107 ft | 11 kts | 229° |
| 2026-05-07 14:42 | 25.07523 | 121.22380 | 106 ft | 11 kts | 229° |
| 2026-05-07 14:43 | 25.07471 | 121.22314 | 106 ft | 11 kts | 229° |
| 2026-05-07 14:43 | 25.07420 | 121.22248 | 108 ft | 12 kts | 229° |
| 2026-05-07 14:43 | 25.07357 | 121.22168 | 108 ft | 14 kts | 229° |
| 2026-05-07 14:43 | 25.07291 | 121.22083 | 106 ft | 14 kts | 229° |
| 2026-05-07 14:44 | 25.07225 | 121.21999 | 108 ft | 14 kts | 229° |
| 2026-05-07 14:44 | 25.07160 | 121.21916 | 108 ft | 14 kts | 229° |
| 2026-05-07 14:44 | 25.07121 | 121.21863 | 108 ft | 12 kts | 237° |
| 2026-05-07 14:44 | 25.07136 | 121.21778 | 107 ft | 12 kts | 313° |
| 2026-05-07 14:45 | 25.07200 | 121.21714 | 108 ft | 12 kts | 319° |
| 2026-05-07 14:45 | 25.07284 | 121.21639 | 107 ft | 10 kts | 335° |
| 2026-05-07 14:45 | 25.07347 | 121.21670 | 107 ft | 12 kts | 50° |
| 2026-05-07 14:45 | 25.07419 | 121.21762 | 107 ft | 41 kts | 49° |
| 2026-05-07 14:46 | 25.07766 | 121.22204 | 107 ft | 110 kts | 49° |
| 2026-05-07 14:46 | 25.08402 | 121.23013 | 108 ft | 168 kts | 49° |
| 2026-05-07 14:46 | 25.09245 | 121.24102 | 225 ft | 196 kts | 49° |
| 2026-05-07 14:46 | 25.10132 | 121.25214 | 766 ft | 195 kts | 49° |
| 2026-05-07 14:47 | 25.11040 | 121.26348 | 1312 ft | 199 kts | 51° |
| 2026-05-07 14:47 | 25.11951 | 121.27515 | 1765 ft | 207 kts | 51° |
| 2026-05-07 14:47 | 25.12934 | 121.28774 | 1927 ft | 225 kts | 51° |
| 2026-05-07 14:47 | 25.13994 | 121.30149 | 2106 ft | 245 kts | 50° |
| 2026-05-07 14:48 | 25.15119 | 121.31616 | 2500 ft | 255 kts | 50° |
| 2026-05-07 14:48 | 25.16284 | 121.33132 | 3008 ft | 262 kts | 50° |
| 2026-05-07 14:48 | 25.17477 | 121.34686 | 3542 ft | 268 kts | 50° |
| 2026-05-07 14:48 | 25.18705 | 121.36282 | 4021 ft | 277 kts | 50° |
| 2026-05-07 14:49 | 25.19968 | 121.37927 | 4547 ft | 284 kts | 49° |
| 2026-05-07 14:49 | 25.21253 | 121.39598 | 5153 ft | 287 kts | 49° |
| 2026-05-07 14:49 | 25.22558 | 121.41295 | 5748 ft | 291 kts | 49° |
| 2026-05-07 14:49 | 25.23876 | 121.43011 | 6349 ft | 295 kts | 49° |
| 2026-05-07 14:50 | 25.25214 | 121.44752 | 6893 ft | 299 kts | 49° |
| 2026-05-07 14:50 | 25.26562 | 121.46505 | 7482 ft | 300 kts | 49° |
| 2026-05-07 14:50 | 25.27917 | 121.48272 | 8067 ft | 302 kts | 50° |
| 2026-05-07 14:50 | 25.28944 | 121.50285 | 8447 ft | 306 kts | 78° |
| 2026-05-07 14:51 | 25.28980 | 121.52606 | 8912 ft | 302 kts | 103° |
| 2026-05-07 14:51 | 25.28757 | 121.54918 | 9261 ft | 310 kts | 83° |
| 2026-05-07 14:51 | 25.29256 | 121.57220 | 9654 ft | 314 kts | 73° |
| 2026-05-07 14:51 | 25.29863 | 121.59578 | 10204 ft | 317 kts | 75° |
| 2026-05-07 14:52 | 25.30420 | 121.61962 | 10411 ft | 334 kts | 76° |
| 2026-05-07 14:52 | 25.30990 | 121.64569 | 10562 ft | 354 kts | 77° |
| 2026-05-07 14:52 | 25.31558 | 121.67285 | 10708 ft | 374 kts | 77° |
| 2026-05-07 14:52 | 25.32136 | 121.70163 | 10888 ft | 392 kts | 78° |
| 2026-05-07 14:53 | 25.32717 | 121.73113 | 11293 ft | 402 kts | 78° |
| 2026-05-07 14:53 | 25.33313 | 121.76163 | 11865 ft | 409 kts | 78° |
| 2026-05-07 14:53 | 25.33916 | 121.79256 | 12565 ft | 412 kts | 77° |
| 2026-05-07 14:53 | 25.34519 | 121.82366 | 13266 ft | 416 kts | 77° |
| 2026-05-07 14:54 | 25.35130 | 121.85515 | 13921 ft | 421 kts | 77° |
| 2026-05-07 14:54 | 25.35746 | 121.88695 | 14506 ft | 425 kts | 77° |
| 2026-05-07 14:54 | 25.36365 | 121.91896 | 15101 ft | 428 kts | 77° |
| 2026-05-07 14:54 | 25.36990 | 121.95131 | 15708 ft | 431 kts | 77° |
| 2026-05-07 14:55 | 25.37619 | 121.98395 | 16309 ft | 435 kts | 77° |
| 2026-05-07 14:55 | 25.38251 | 122.01674 | 16897 ft | 439 kts | 77° |
| 2026-05-07 14:55 | 25.38889 | 122.04989 | 17465 ft | 442 kts | 78° |
| 2026-05-07 14:55 | 25.39524 | 122.08288 | 18016 ft | 447 kts | 78° |
| 2026-05-07 14:56 | 25.40181 | 122.11713 | 18491 ft | 452 kts | 78° |
| 2026-05-07 14:56 | 25.40835 | 122.15124 | 18964 ft | 455 kts | 78° |
| 2026-05-07 14:56 | 25.41487 | 122.18522 | 19452 ft | 458 kts | 78° |
| 2026-05-07 14:56 | 25.42189 | 122.21970 | 19924 ft | 461 kts | 74° |
| 2026-05-07 14:57 | 25.43167 | 122.25355 | 20352 ft | 465 kts | 69° |
| 2026-05-07 14:57 | 25.44328 | 122.28710 | 20820 ft | 468 kts | 68° |
| 2026-05-07 14:57 | 25.45549 | 122.32068 | 21295 ft | 471 kts | 67° |
| 2026-05-07 14:57 | 25.46771 | 122.35449 | 21751 ft | 475 kts | 68° |
| 2026-05-07 14:58 | 25.47978 | 122.38871 | 22118 ft | 481 kts | 68° |
| 2026-05-07 14:58 | 25.49172 | 122.42344 | 22539 ft | 485 kts | 69° |
| 2026-05-07 14:58 | 25.50355 | 122.45849 | 22991 ft | 487 kts | 69° |
| 2026-05-07 14:58 | 25.51540 | 122.49392 | 23442 ft | 490 kts | 69° |
| 2026-05-07 14:59 | 25.52724 | 122.52946 | 23823 ft | 493 kts | 69° |
| 2026-05-07 14:59 | 25.53913 | 122.56519 | 24195 ft | 496 kts | 69° |
| 2026-05-07 14:59 | 25.55108 | 122.60109 | 24551 ft | 498 kts | 69° |
| 2026-05-07 14:59 | 25.56310 | 122.63715 | 24899 ft | 501 kts | 69° |
| 2026-05-07 15:00 | 25.57524 | 122.67358 | 25216 ft | 505 kts | 69° |
| 2026-05-07 15:00 | 25.58745 | 122.71028 | 25537 ft | 508 kts | 69° |
| 2026-05-07 15:00 | 25.59968 | 122.74707 | 25869 ft | 511 kts | 69° |
| 2026-05-07 15:00 | 25.61198 | 122.78411 | 26201 ft | 513 kts | 69° |
| 2026-05-07 15:01 | 25.62434 | 122.82132 | 26533 ft | 516 kts | 69° |
| 2026-05-07 15:01 | 25.63673 | 122.85872 | 26864 ft | 518 kts | 69° |
| 2026-05-07 15:01 | 25.64923 | 122.89625 | 27171 ft | 521 kts | 69° |
| 2026-05-07 15:01 | 25.66194 | 122.93399 | 27486 ft | 523 kts | 68° |
| 2026-05-07 15:02 | 25.67474 | 122.97181 | 27809 ft | 526 kts | 68° |
| 2026-05-07 15:02 | 25.68761 | 123.00981 | 28105 ft | 528 kts | 69° |
| 2026-05-07 15:02 | 25.70038 | 123.04764 | 28336 ft | 532 kts | 69° |
| 2026-05-07 15:02 | 25.71333 | 123.08615 | 28604 ft | 535 kts | 69° |
| 2026-05-07 15:03 | 25.72635 | 123.12488 | 28882 ft | 537 kts | 69° |
| 2026-05-07 15:03 | 25.73942 | 123.16383 | 29143 ft | 539 kts | 69° |
| 2026-05-07 15:03 | 25.75246 | 123.20277 | 29474 ft | 539 kts | 69° |
| 2026-05-07 15:03 | 25.76550 | 123.24173 | 29888 ft | 538 kts | 69° |
| 2026-05-07 15:04 | 25.77850 | 123.28060 | 30266 ft | 536 kts | 69° |
| 2026-05-07 15:04 | 25.79146 | 123.31939 | 30644 ft | 535 kts | 68° |
| 2026-05-07 15:04 | 25.80435 | 123.35803 | 31032 ft | 533 kts | 68° |
| 2026-05-07 15:04 | 25.81717 | 123.39650 | 31429 ft | 530 kts | 68° |
| 2026-05-07 15:05 | 25.82994 | 123.43479 | 31817 ft | 529 kts | 68° |
| 2026-05-07 15:05 | 25.84268 | 123.47309 | 32115 ft | 529 kts | 68° |
| 2026-05-07 15:05 | 25.85542 | 123.51141 | 32426 ft | 528 kts | 68° |
| 2026-05-07 15:05 | 25.86866 | 123.54928 | 32740 ft | 524 kts | 62° |
| 2026-05-07 15:06 | 25.88832 | 123.58293 | 32857 ft | 519 kts | 44° |
| 2026-05-07 15:06 | 25.91489 | 123.60969 | 32921 ft | 514 kts | 29° |
| 2026-05-07 15:06 | 25.94608 | 123.62811 | 33006 ft | 503 kts | 19° |
| 2026-05-07 15:06 | 25.97829 | 123.64364 | 32957 ft | 506 kts | 19° |
| 2026-05-07 15:07 | 26.04233 | 123.67581 | 33011 ft | 504 kts | 20° |
| 2026-05-07 15:07 | 26.10584 | 123.70882 | 32971 ft | 503 kts | 21° |
| 2026-05-07 15:08 | 26.16917 | 123.74208 | 32977 ft | 503 kts | 21° |
| 2026-05-07 15:08 | 26.23205 | 123.77512 | 32981 ft | 503 kts | 21° |
| 2026-05-07 15:09 | 26.29549 | 123.80842 | 32988 ft | 504 kts | 21° |
| 2026-05-07 15:09 | 26.35899 | 123.84178 | 32988 ft | 505 kts | 21° |
| 2026-05-07 15:10 | 26.42263 | 123.87524 | 32983 ft | 506 kts | 21° |
| 2026-05-07 15:10 | 26.48589 | 123.90857 | 32998 ft | 507 kts | 21° |
| 2026-05-07 15:11 | 26.54984 | 123.94231 | 32976 ft | 508 kts | 21° |
| 2026-05-07 15:11 | 26.61372 | 123.97604 | 32977 ft | 508 kts | 21° |
| 2026-05-07 15:12 | 26.67432 | 124.01663 | 32974 ft | 517 kts | 43° |
| 2026-05-07 15:12 | 26.71984 | 124.07897 | 32981 ft | 519 kts | 49° |
| 2026-05-07 15:13 | 26.76519 | 124.14219 | 32990 ft | 521 kts | 47° |
| 2026-05-07 15:13 | 26.81148 | 124.20476 | 32991 ft | 522 kts | 47° |
| 2026-05-07 15:14 | 26.85780 | 124.26687 | 32987 ft | 523 kts | 47° |
| 2026-05-07 15:14 | 26.90443 | 124.32963 | 32995 ft | 523 kts | 47° |
| 2026-05-07 15:15 | 26.95097 | 124.39245 | 32984 ft | 523 kts | 47° |
| 2026-05-07 15:15 | 26.99742 | 124.45517 | 32985 ft | 522 kts | 47° |
| 2026-05-07 15:16 | 27.04385 | 124.51772 | 32985 ft | 521 kts | 47° |
| 2026-05-07 15:16 | 27.09019 | 124.58022 | 32992 ft | 520 kts | 46° |
| 2026-05-07 15:17 | 27.13644 | 124.64271 | 32987 ft | 520 kts | 46° |
| 2026-05-07 15:17 | 27.18231 | 124.70479 | 32993 ft | 520 kts | 47° |
| 2026-05-07 15:18 | 27.22850 | 124.76739 | 32987 ft | 519 kts | 47° |
| 2026-05-07 15:18 | 27.27461 | 124.83003 | 32996 ft | 521 kts | 46° |
| 2026-05-07 15:19 | 27.32086 | 124.89291 | 32995 ft | 522 kts | 46° |
| 2026-05-07 15:19 | 27.36714 | 124.95590 | 32997 ft | 523 kts | 46° |
| 2026-05-07 15:20 | 27.41347 | 125.01898 | 32995 ft | 523 kts | 46° |
| 2026-05-07 15:20 | 27.46015 | 125.08198 | 33005 ft | 524 kts | 45° |
| 2026-05-07 15:21 | 27.50693 | 125.14500 | 32998 ft | 525 kts | 46° |
| 2026-05-07 15:21 | 27.55371 | 125.20816 | 33000 ft | 525 kts | 46° |
| 2026-05-07 15:22 | 27.60025 | 125.27116 | 33020 ft | 525 kts | 46° |
| 2026-05-07 15:22 | 27.64703 | 125.33467 | 32990 ft | 526 kts | 46° |
| 2026-05-07 15:23 | 27.69373 | 125.39814 | 33001 ft | 525 kts | 46° |
| 2026-05-07 15:23 | 27.74038 | 125.46161 | 32995 ft | 526 kts | 46° |
| 2026-05-07 15:24 | 27.78698 | 125.52509 | 33016 ft | 525 kts | 46° |
| 2026-05-07 15:24 | 27.83364 | 125.58874 | 33017 ft | 525 kts | 46° |
| 2026-05-07 15:25 | 27.88019 | 125.65235 | 32998 ft | 525 kts | 46° |
| 2026-05-07 15:25 | 27.92665 | 125.71600 | 33016 ft | 524 kts | 46° |
| 2026-05-07 15:26 | 27.97315 | 125.77976 | 33021 ft | 525 kts | 46° |
| 2026-05-07 15:26 | 28.01935 | 125.84320 | 33009 ft | 526 kts | 47° |
| 2026-05-07 15:27 | 28.06585 | 125.90709 | 33006 ft | 525 kts | 47° |
| 2026-05-07 15:27 | 28.11232 | 125.97109 | 33023 ft | 527 kts | 46° |
| 2026-05-07 15:28 | 28.15896 | 126.03540 | 33010 ft | 529 kts | 46° |
| 2026-05-07 15:28 | 28.20569 | 126.09995 | 33010 ft | 530 kts | 47° |
| 2026-05-07 15:29 | 28.25247 | 126.16467 | 33012 ft | 531 kts | 47° |
| 2026-05-07 15:29 | 28.29928 | 126.22957 | 33006 ft | 532 kts | 46° |
| 2026-05-07 15:30 | 28.33837 | 126.28373 | 33013 ft | 533 kts | 47° |
| 2026-05-07 15:30 | 28.38531 | 126.34893 | 33016 ft | 534 kts | 47° |
| 2026-05-07 15:31 | 28.43995 | 126.42497 | 32999 ft | 534 kts | 47° |
| 2026-05-07 15:31 | 28.47928 | 126.47981 | 33017 ft | 534 kts | 47° |
| 2026-05-07 15:32 | 28.53374 | 126.55589 | 32999 ft | 533 kts | 47° |
| 2026-05-07 15:32 | 28.57286 | 126.61056 | 32999 ft | 531 kts | 47° |
| 2026-05-07 15:33 | 28.61904 | 126.67523 | 33021 ft | 530 kts | 46° |
| 2026-05-07 15:33 | 28.66567 | 126.74063 | 33021 ft | 533 kts | 46° |
| 2026-05-07 15:34 | 28.71256 | 126.80644 | 33012 ft | 536 kts | 46° |
| 2026-05-07 15:34 | 28.75974 | 126.87277 | 33021 ft | 539 kts | 46° |
| 2026-05-07 15:35 | 28.80698 | 126.93931 | 33007 ft | 541 kts | 46° |
| 2026-05-07 15:35 | 28.85430 | 127.00612 | 33002 ft | 542 kts | 47° |
| 2026-05-07 15:36 | 28.90158 | 127.07303 | 33011 ft | 540 kts | 47° |
| 2026-05-07 15:36 | 28.94870 | 127.13972 | 33034 ft | 539 kts | 47° |
| 2026-05-07 15:37 | 28.99547 | 127.20603 | 33010 ft | 539 kts | 47° |
| 2026-05-07 15:37 | 29.04252 | 127.27281 | 33000 ft | 538 kts | 47° |
| 2026-05-07 15:38 | 29.08931 | 127.33944 | 33011 ft | 537 kts | 47° |
| 2026-05-07 15:38 | 29.13612 | 127.40614 | 33020 ft | 537 kts | 46° |
| 2026-05-07 15:39 | 29.18288 | 127.47285 | 33004 ft | 536 kts | 46° |
| 2026-05-07 15:39 | 29.22952 | 127.53951 | 33010 ft | 536 kts | 47° |
| 2026-05-07 15:40 | 29.27577 | 127.60578 | 33024 ft | 536 kts | 47° |
| 2026-05-07 15:40 | 29.32239 | 127.67266 | 33021 ft | 536 kts | 47° |
| 2026-05-07 15:41 | 29.36895 | 127.73951 | 32985 ft | 536 kts | 47° |
| 2026-05-07 15:41 | 29.41548 | 127.80647 | 33019 ft | 536 kts | 47° |
| 2026-05-07 15:42 | 29.46195 | 127.87346 | 33002 ft | 536 kts | 47° |
| 2026-05-07 15:42 | 29.50827 | 127.94034 | 33004 ft | 536 kts | 47° |
| 2026-05-07 15:43 | 29.55477 | 128.00754 | 33011 ft | 536 kts | 47° |
| 2026-05-07 15:43 | 29.60090 | 128.07424 | 33010 ft | 536 kts | 47° |
| 2026-05-07 15:44 | 29.64724 | 128.14129 | 33004 ft | 535 kts | 47° |
| 2026-05-07 15:44 | 29.69357 | 128.20849 | 32991 ft | 534 kts | 48° |
| 2026-05-07 15:45 | 29.73974 | 128.27551 | 33011 ft | 533 kts | 48° |
| 2026-05-07 15:45 | 29.78532 | 128.34187 | 32999 ft | 532 kts | 48° |
| 2026-05-07 15:46 | 29.85413 | 128.44229 | 32999 ft | 531 kts | 48° |
| 2026-05-07 15:47 | 29.89987 | 128.50916 | 33001 ft | 531 kts | 49° |
| 2026-05-07 15:47 | 29.94560 | 128.57608 | 32998 ft | 531 kts | 49° |
| 2026-05-07 15:48 | 29.99124 | 128.64301 | 33003 ft | 531 kts | 49° |
| 2026-05-07 15:48 | 30.03695 | 128.71015 | 32993 ft | 532 kts | 49° |
| 2026-05-07 15:49 | 30.08269 | 128.77744 | 33004 ft | 533 kts | 49° |
| 2026-05-07 15:49 | 30.12842 | 128.84484 | 32993 ft | 533 kts | 49° |
| 2026-05-07 15:50 | 30.17418 | 128.91245 | 33007 ft | 534 kts | 49° |
| 2026-05-07 15:50 | 30.21962 | 128.97964 | 32993 ft | 534 kts | 49° |
| 2026-05-07 15:51 | 30.26534 | 129.04733 | 32997 ft | 534 kts | 49° |
| 2026-05-07 15:51 | 30.31113 | 129.11524 | 33013 ft | 534 kts | 49° |
| 2026-05-07 15:52 | 30.35672 | 129.18297 | 33002 ft | 533 kts | 50° |
| 2026-05-07 15:52 | 30.40199 | 129.25036 | 32991 ft | 532 kts | 50° |
| 2026-05-07 15:53 | 30.44742 | 129.31812 | 32995 ft | 531 kts | 50° |
| 2026-05-07 15:53 | 30.49275 | 129.38584 | 32996 ft | 530 kts | 50° |
| 2026-05-07 15:54 | 30.53784 | 129.45329 | 32993 ft | 529 kts | 50° |
| 2026-05-07 15:54 | 30.58291 | 129.52083 | 32994 ft | 528 kts | 50° |
| 2026-05-07 15:55 | 30.62786 | 129.58830 | 32993 ft | 529 kts | 49° |
| 2026-05-07 15:55 | 30.67284 | 129.65599 | 32996 ft | 529 kts | 50° |
| 2026-05-07 15:56 | 30.71749 | 129.72325 | 32995 ft | 529 kts | 50° |
| 2026-05-07 15:56 | 30.76276 | 129.79155 | 32993 ft | 530 kts | 50° |
| 2026-05-07 15:57 | 30.80747 | 129.85914 | 32989 ft | 530 kts | 50° |
| 2026-05-07 15:57 | 30.85194 | 129.92779 | 32984 ft | 533 kts | 54° |
| 2026-05-07 15:58 | 30.89132 | 130.00097 | 33002 ft | 534 kts | 56° |
| 2026-05-07 15:58 | 30.92999 | 130.07500 | 32996 ft | 535 kts | 57° |
| 2026-05-07 15:59 | 30.96881 | 130.14887 | 32990 ft | 536 kts | 56° |
| 2026-05-07 15:59 | 31.00804 | 130.22301 | 32997 ft | 537 kts | 56° |
| 2026-05-07 16:00 | 31.04725 | 130.29711 | 32985 ft | 537 kts | 56° |
| 2026-05-07 16:00 | 31.08639 | 130.37123 | 32986 ft | 536 kts | 56° |
| 2026-05-07 16:01 | 31.12538 | 130.44529 | 33004 ft | 536 kts | 57° |
| 2026-05-07 16:01 | 31.16412 | 130.51901 | 32982 ft | 536 kts | 57° |
| 2026-05-07 16:02 | 31.20299 | 130.59311 | 32976 ft | 534 kts | 57° |
| 2026-05-07 16:02 | 31.24177 | 130.66719 | 32975 ft | 534 kts | 57° |
| 2026-05-07 16:03 | 31.28047 | 130.74126 | 32980 ft | 534 kts | 57° |
| 2026-05-07 16:03 | 31.31919 | 130.81546 | 32984 ft | 535 kts | 57° |
| 2026-05-07 16:04 | 31.35793 | 130.88988 | 32985 ft | 535 kts | 57° |
| 2026-05-07 16:04 | 31.39647 | 130.96412 | 32968 ft | 535 kts | 57° |
| 2026-05-07 16:05 | 31.43514 | 131.03870 | 32971 ft | 534 kts | 57° |
| 2026-05-07 16:05 | 31.47357 | 131.11294 | 32967 ft | 533 kts | 57° |
| 2026-05-07 16:06 | 31.51198 | 131.18731 | 32973 ft | 532 kts | 57° |
| 2026-05-07 16:06 | 31.55002 | 131.26111 | 32974 ft | 531 kts | 57° |
| 2026-05-07 16:07 | 31.58818 | 131.33529 | 32969 ft | 530 kts | 57° |
| 2026-05-07 16:07 | 31.62626 | 131.40946 | 32959 ft | 530 kts | 57° |
| 2026-05-07 16:08 | 31.66430 | 131.48374 | 32956 ft | 530 kts | 57° |
| 2026-05-07 16:08 | 31.70219 | 131.55798 | 32957 ft | 530 kts | 57° |
| 2026-05-07 16:09 | 31.74005 | 131.63230 | 32960 ft | 531 kts | 57° |
| 2026-05-07 16:09 | 31.77791 | 131.70670 | 32952 ft | 531 kts | 57° |
| 2026-05-07 16:10 | 31.81577 | 131.78127 | 32937 ft | 531 kts | 57° |
| 2026-05-07 16:10 | 31.85360 | 131.85587 | 32947 ft | 531 kts | 58° |
| 2026-05-07 16:11 | 31.89110 | 131.93005 | 32936 ft | 531 kts | 58° |
| 2026-05-07 16:11 | 31.92888 | 132.00494 | 32924 ft | 532 kts | 58° |
| 2026-05-07 16:12 | 31.96662 | 132.07987 | 32946 ft | 532 kts | 58° |
| 2026-05-07 16:12 | 32.00432 | 132.15484 | 32928 ft | 532 kts | 58° |
| 2026-05-07 16:13 | 32.04195 | 132.22987 | 32920 ft | 531 kts | 58° |
| 2026-05-07 16:13 | 32.07947 | 132.30482 | 32939 ft | 531 kts | 57° |
| 2026-05-07 16:14 | 32.11699 | 132.37992 | 32930 ft | 531 kts | 58° |
| 2026-05-07 16:14 | 32.15170 | 132.45681 | 32929 ft | 531 kts | 62° |
| 2026-05-07 16:15 | 32.18441 | 132.53479 | 32945 ft | 531 kts | 62° |
| 2026-05-07 16:15 | 32.21714 | 132.61308 | 32925 ft | 531 kts | 62° |
| 2026-05-07 16:16 | 32.25001 | 132.69109 | 32920 ft | 531 kts | 62° |
| 2026-05-07 16:16 | 32.28295 | 132.76917 | 32932 ft | 531 kts | 62° |
| 2026-05-07 16:17 | 32.31028 | 132.83407 | 32923 ft | 531 kts | 62° |
| 2026-05-07 16:17 | 32.34849 | 132.92510 | 32918 ft | 531 kts | 62° |
| 2026-05-07 16:18 | 32.38135 | 133.00354 | 32941 ft | 531 kts | 62° |
| 2026-05-07 16:18 | 32.40863 | 133.06881 | 32910 ft | 531 kts | 62° |
| 2026-05-07 16:19 | 32.44128 | 133.14711 | 32915 ft | 532 kts | 62° |
| 2026-05-07 16:19 | 32.47402 | 133.22579 | 32922 ft | 532 kts | 62° |
| 2026-05-07 16:20 | 32.50674 | 133.30461 | 32917 ft | 532 kts | 62° |
| 2026-05-07 16:20 | 32.53938 | 133.38342 | 32925 ft | 533 kts | 62° |
| 2026-05-07 16:21 | 32.57204 | 133.46236 | 32935 ft | 533 kts | 62° |
| 2026-05-07 16:21 | 32.60499 | 133.54130 | 32922 ft | 534 kts | 62° |
| 2026-05-07 16:22 | 32.63793 | 133.62039 | 32918 ft | 534 kts | 62° |
| 2026-05-07 16:22 | 32.67026 | 133.69923 | 32932 ft | 534 kts | 62° |